Карточка аэропорта UATT

Внимание!
Информация на этой странице в стадии наполнения.
Если вы не увидели какой-то информации, или заметили неточность - пожалуйста сообщите нам!
Спасибо!
Команда RU-STAFF
Название аэропортаАктобе
Название аэропорта (англ.)Aktobe
Превышение738 ft. (224.9 m.)
Координаты50°14.748', 57°12.402'
Высота перехода10000ft
Эшелон переходаFL120, QNH<733:FL130
Коды ответчика3440-3447, 3540-3547
Зона ОрВДАктобе РПИ (UATT)
Данные METARUATT 170000Z VRB01MPS 9999 BKN028 10/10 Q1014 NOSIG RMK QFE741/0988
Проноз погоды (TAF)UATT 161701Z 1618/1718 23006MPS 3100 -SHRA BR BKN011 BKN030CB TX24/1712Z TN10/1618Z TEMPO 1618/1624 -TSRA BKN006 BKN020CB TEMPO 1700/1705 1000 SHRA BR BKN005 BKN020CB BECMG 1705/1706 9999 NSW TEMPO 1706/1715 21012MPS
NOTAMshow/hide NOTAM
AWOS   TABLE

Информация о ВПП

ВПП Длина ВПП (м.) Покрытие Курс ВПП Частота ILS
133202Бетон135111.7
313202Бетон315111.7

Диспетчерские позиции




Спутниковое изображение